Time;durP1;ratioP1;P1;durP2;ratioP2;P2;SDS_P1;SDS_P2;PMS_P1;PMS_P2;Temp;Humidity;BMP_temperature;BMP_pressure;BME280_temperature;BME280_humidity;BME280_pressure;Samples;Min_cycle;Max_cycle;Signal;HPM_P1;HPM_P2
2020/12/03 00:00:31;;;;;;;46.03;22.98;;;-0.30;99.90;;;;;;5066024;28;20512;-83
2020/12/03 00:03:00;;;;;;;37.95;20.98;;;-0.40;99.90;;;;;;5065321;28;20076;-83
2020/12/03 00:05:27;;;;;;;37.35;20.88;;;-0.40;99.90;;;;;;5064697;28;20072;-83
2020/12/03 00:07:54;;;;;;;45.38;22.40;;;-0.40;99.90;;;;;;5064166;28;20084;-82
2020/12/03 00:10:22;;;;;;;42.72;22.08;;;-0.50;99.90;;;;;;5061740;28;20481;-82
2020/12/03 00:13:26;;;;;;;37.58;20.75;;;-0.50;99.90;;;;;;5062137;28;20148;-82
2020/12/03 00:15:56;;;;;;;43.75;22.05;;;-0.40;99.90;;;;;;5059783;28;20049;-83
2020/12/03 00:18:29;;;;;;;41.92;22.02;;;-0.40;99.90;;;;;;5059269;28;20059;-82
2020/12/03 00:20:56;;;;;;;43.17;21.98;;;-0.40;99.90;;;;;;5061469;28;20049;-81
2020/12/03 00:23:23;;;;;;;40.33;21.63;;;-0.40;99.90;;;;;;5060458;28;20057;-82
2020/12/03 00:25:52;;;;;;;43.00;23.38;;;-0.50;99.90;;;;;;5060090;28;20049;-82
2020/12/03 00:28:18;;;;;;;39.22;21.70;;;-0.50;99.90;;;;;;5059056;28;20096;-82
2020/12/03 00:30:45;;;;;;;44.42;23.30;;;-0.50;99.90;;;;;;5057073;28;20124;-82
2020/12/03 00:33:17;;;;;;;44.80;23.35;;;-0.50;99.90;;;;;;5057038;28;20056;-82
2020/12/03 00:35:51;;;;;;;39.22;21.85;;;-0.50;99.90;;;;;;5058389;28;20107;-82
2020/12/03 00:38:19;;;;;;;40.30;22.17;;;-0.50;99.90;;;;;;5056637;28;20041;-82
2020/12/03 00:40:47;;;;;;;46.03;22.85;;;-0.50;99.90;;;;;;5057681;28;20052;-82
2020/12/03 00:43:15;;;;;;;40.63;22.13;;;-0.50;99.90;;;;;;5056853;28;20076;-82
2020/12/03 00:45:43;;;;;;;41.33;21.98;;;-0.60;99.90;;;;;;5055554;28;20073;-81
2020/12/03 00:48:09;;;;;;;42.67;22.48;;;-0.60;99.90;;;;;;5055046;28;20053;-82
2020/12/03 00:50:36;;;;;;;38.70;22.20;;;-0.60;99.90;;;;;;5054767;28;20131;-82
2020/12/03 00:53:02;;;;;;;39.08;22.05;;;-0.60;99.90;;;;;;5056141;28;20481;-82
2020/12/03 00:55:28;;;;;;;41.55;21.77;;;-0.60;99.90;;;;;;5055328;28;20145;-82
2020/12/03 00:57:55;;;;;;;41.90;21.77;;;-0.60;99.90;;;;;;5053838;28;20053;-82
2020/12/03 01:00:21;;;;;;;46.42;22.48;;;-0.70;99.90;;;;;;5055415;28;20068;-82
2020/12/03 01:02:50;;;;;;;40.10;22.08;;;-0.60;99.90;;;;;;5054601;28;20464;-82
2020/12/03 01:05:18;;;;;;;41.92;21.38;;;-0.60;99.90;;;;;;5056729;28;20133;-82
2020/12/03 01:07:45;;;;;;;43.78;22.70;;;-0.60;99.90;;;;;;5053898;28;20057;-82
2020/12/03 01:10:20;;;;;;;45.28;21.83;;;-0.60;99.90;;;;;;5056497;28;20110;-82
2020/12/03 01:12:48;;;;;;;39.45;21.13;;;-0.60;99.90;;;;;;5055110;28;20140;-82
2020/12/03 01:15:15;;;;;;;43.78;21.00;;;-0.60;99.90;;;;;;5055676;28;20044;-82
2020/12/03 01:17:43;;;;;;;40.70;21.02;;;-0.60;99.90;;;;;;5054459;28;20051;-82
2020/12/03 01:20:11;;;;;;;39.72;21.80;;;-0.70;99.90;;;;;;5053125;28;20131;-82
2020/12/03 01:22:38;;;;;;;40.03;22.02;;;-0.70;99.90;;;;;;5055339;28;20135;-81
2020/12/03 01:25:06;;;;;;;36.25;20.38;;;-0.70;99.90;;;;;;5055115;28;20045;-82
2020/12/03 01:27:32;;;;;;;37.92;21.83;;;-0.70;99.90;;;;;;5053101;28;20578;-82
2020/12/03 01:29:58;;;;;;;39.40;20.95;;;-0.70;99.90;;;;;;5053019;28;20133;-82
2020/12/03 01:32:25;;;;;;;44.05;21.52;;;-0.70;99.90;;;;;;5051700;28;20041;-82
2020/12/03 01:34:51;;;;;;;36.50;20.77;;;-0.70;99.90;;;;;;5052088;28;20132;-82
2020/12/03 01:37:17;;;;;;;37.50;20.80;;;-0.70;99.90;;;;;;5053141;28;20068;-82
2020/12/03 01:39:45;;;;;;;37.42;19.88;;;-0.70;99.90;;;;;;5053246;28;20045;-82
2020/12/03 01:42:13;;;;;;;39.65;21.48;;;-0.70;99.90;;;;;;5053214;28;20128;-81
2020/12/03 01:44:39;;;;;;;34.63;20.95;;;-0.80;99.90;;;;;;5058378;28;20114;-83
2020/12/03 01:47:11;;;;;;;36.22;20.85;;;-0.80;99.90;;;;;;5064633;28;20057;-83
2020/12/03 01:49:38;;;;;;;42.17;21.50;;;-0.80;99.90;;;;;;5063850;28;20049;-83
2020/12/03 01:52:04;;;;;;;38.25;21.63;;;-0.70;99.90;;;;;;5061928;28;20318;-83
2020/12/03 01:54:30;;;;;;;40.33;21.60;;;-0.80;99.90;;;;;;5060393;28;20080;-82
2020/12/03 01:57:08;;;;;;;41.60;21.60;;;-0.80;99.90;;;;;;5060633;28;20041;-82
2020/12/03 01:59:44;;;;;;;37.63;20.20;;;-0.80;99.90;;;;;;5060062;28;20069;-82
2020/12/03 02:02:13;;;;;;;36.97;20.33;;;-0.80;99.90;;;;;;5060058;28;20048;-83
2020/12/03 02:04:39;;;;;;;41.40;21.63;;;-0.80;99.90;;;;;;5060299;28;20081;-82
2020/12/03 02:07:14;;;;;;;37.80;20.80;;;-0.80;99.90;;;;;;5059721;28;20056;-82
2020/12/03 02:09:40;;;;;;;39.88;22.25;;;-0.80;99.90;;;;;;5057901;28;20083;-82
2020/12/03 02:12:06;;;;;;;37.47;20.98;;;-0.80;99.90;;;;;;5057736;28;20573;-82
2020/12/03 02:14:32;;;;;;;37.20;21.67;;;-0.80;99.90;;;;;;5056798;28;20108;-82
2020/12/03 02:16:59;;;;;;;39.85;21.13;;;-0.70;99.90;;;;;;5056671;28;20517;-82
2020/12/03 02:19:28;;;;;;;37.42;20.58;;;-0.70;99.90;;;;;;5056927;28;20580;-82
2020/12/03 02:22:02;;;;;;;34.90;19.70;;;-0.70;99.90;;;;;;5055746;28;20428;-82
2020/12/03 02:24:32;;;;;;;40.05;20.70;;;-0.80;99.90;;;;;;5055157;28;20421;-82
2020/12/03 02:26:59;;;;;;;40.22;20.52;;;-0.80;99.90;;;;;;5054768;28;20084;-83
2020/12/03 02:29:26;;;;;;;37.88;21.38;;;-0.80;99.90;;;;;;5055032;28;20049;-82
2020/12/03 02:31:53;;;;;;;33.67;20.58;;;-0.80;99.90;;;;;;5055738;28;20113;-82
2020/12/03 02:34:20;;;;;;;37.03;20.13;;;-0.80;99.90;;;;;;5055906;28;20069;-82
2020/12/03 02:36:55;;;;;;;35.42;19.05;;;-0.80;99.90;;;;;;5055350;28;20119;-82
2020/12/03 02:39:22;;;;;;;35.83;20.58;;;-0.80;99.90;;;;;;5053780;28;20083;-82
2020/12/03 02:41:49;;;;;;;38.92;19.60;;;-0.90;99.90;;;;;;5055982;28;20493;-82
2020/12/03 02:44:16;;;;;;;32.30;18.80;;;-0.90;99.90;;;;;;5059340;28;20148;-82
2020/12/03 02:46:43;;;;;;;34.10;18.73;;;-0.90;99.90;;;;;;5058947;28;20056;-82
2020/12/03 02:49:10;;;;;;;34.47;19.30;;;-0.90;99.90;;;;;;5056589;28;20076;-82
2020/12/03 02:51:40;;;;;;;31.02;18.23;;;-0.90;99.90;;;;;;5056501;28;20099;-82
2020/12/03 02:54:08;;;;;;;33.65;19.17;;;-0.90;99.90;;;;;;5057970;28;20076;-82
2020/12/03 02:56:35;;;;;;;37.15;19.42;;;-0.90;99.90;;;;;;5055633;28;20139;-82
2020/12/03 02:59:02;;;;;;;33.13;18.48;;;-0.90;99.90;;;;;;5056087;28;20124;-82
2020/12/03 03:01:28;;;;;;;29.63;17.80;;;-0.90;99.90;;;;;;5055403;28;20519;-82
2020/12/03 03:03:55;;;;;;;33.95;18.00;;;-0.90;99.90;;;;;;5055273;28;20127;-81
2020/12/03 03:06:21;;;;;;;32.00;18.00;;;-0.90;99.90;;;;;;5055275;28;20127;-82
2020/12/03 03:08:48;;;;;;;34.13;17.35;;;-0.90;99.90;;;;;;5055250;28;20056;-82
2020/12/03 03:11:14;;;;;;;28.73;16.60;;;-0.90;99.90;;;;;;5054705;28;20125;-81
2020/12/03 03:13:40;;;;;;;29.55;17.38;;;-0.90;99.90;;;;;;5056160;28;20056;-81
2020/12/03 03:16:07;;;;;;;33.47;17.33;;;-0.90;99.90;;;;;;5056383;28;20060;-81
2020/12/03 03:18:33;;;;;;;32.30;17.30;;;-0.90;99.90;;;;;;5054482;28;20468;-82
2020/12/03 03:20:59;;;;;;;30.83;17.67;;;-0.90;99.90;;;;;;5054155;28;20136;-82
2020/12/03 03:23:26;;;;;;;33.00;17.73;;;-0.90;99.90;;;;;;5054073;28;20076;-82
2020/12/03 03:25:52;;;;;;;32.95;17.63;;;-0.90;99.90;;;;;;5054178;28;20494;-82
2020/12/03 03:28:18;;;;;;;49.42;19.13;;;-0.90;99.90;;;;;;5053990;28;20092;-82
2020/12/03 03:30:45;;;;;;;31.60;16.73;;;-0.90;99.90;;;;;;5054610;28;20052;-82
2020/12/03 03:33:11;;;;;;;37.03;18.20;;;-0.90;99.90;;;;;;5054575;28;20448;-82
2020/12/03 03:35:38;;;;;;;34.55;17.48;;;-0.90;99.90;;;;;;5064345;28;20045;-83
2020/12/03 03:38:04;;;;;;;33.65;18.17;;;-0.90;99.90;;;;;;5066258;28;20049;-83
2020/12/03 03:40:30;;;;;;;31.67;17.95;;;-0.90;99.90;;;;;;5062724;28;20041;-83
2020/12/03 03:42:56;;;;;;;32.65;17.60;;;-0.90;99.90;;;;;;5062170;28;20056;-82
2020/12/03 03:45:22;;;;;;;31.90;18.45;;;-0.90;99.90;;;;;;5064044;28;20135;-83
2020/12/03 03:47:50;;;;;;;33.75;18.27;;;-1.00;99.90;;;;;;5062130;28;20077;-82
2020/12/03 03:50:16;;;;;;;33.90;17.85;;;-0.90;99.90;;;;;;5060503;28;20137;-82
2020/12/03 03:52:43;;;;;;;32.33;18.08;;;-1.00;99.90;;;;;;5061958;28;20061;-82
2020/12/03 03:55:09;;;;;;;35.47;17.90;;;-1.00;99.90;;;;;;5060996;28;20049;-82
2020/12/03 03:57:35;;;;;;;36.35;19.15;;;-1.00;99.90;;;;;;5059732;28;20567;-82
2020/12/03 04:00:02;;;;;;;38.33;19.45;;;-1.00;99.90;;;;;;5060003;28;20049;-82
2020/12/03 04:02:28;;;;;;;33.97;17.52;;;-1.00;99.90;;;;;;5059746;28;20466;-82
2020/12/03 04:04:55;;;;;;;38.75;19.55;;;-1.00;99.90;;;;;;5060643;28;20492;-82
2020/12/03 04:07:21;;;;;;;35.85;18.52;;;-1.00;99.90;;;;;;5058287;28;20055;-83
2020/12/03 04:09:47;;;;;;;34.05;17.52;;;-1.00;99.90;;;;;;5058194;28;20112;-83
2020/12/03 04:12:14;;;;;;;40.10;19.23;;;-1.00;99.90;;;;;;5057799;28;20060;-82
2020/12/03 04:14:41;;;;;;;32.28;17.80;;;-1.00;99.90;;;;;;5057403;28;20143;-82
2020/12/03 04:17:07;;;;;;;35.00;18.75;;;-1.00;99.90;;;;;;5056880;28;20128;-82
2020/12/03 04:19:33;;;;;;;31.08;17.52;;;-1.00;99.90;;;;;;5056795;28;20494;-81
2020/12/03 04:22:00;;;;;;;37.85;19.63;;;-1.00;99.90;;;;;;5055631;28;20080;-82
2020/12/03 04:24:26;;;;;;;30.00;17.05;;;-1.00;99.90;;;;;;5055476;28;20057;-83
2020/12/03 04:26:52;;;;;;;35.55;19.33;;;-1.00;99.90;;;;;;5055129;28;20056;-82
2020/12/03 04:29:18;;;;;;;35.83;20.08;;;-1.00;99.90;;;;;;5055344;28;20139;-82
2020/12/03 04:31:45;;;;;;;37.05;19.42;;;-1.00;99.90;;;;;;5054936;28;20504;-82
2020/12/03 04:34:13;;;;;;;34.08;19.08;;;-1.00;99.90;;;;;;5054700;28;20127;-82
2020/12/03 04:36:40;;;;;;;34.13;19.15;;;-1.00;99.90;;;;;;5054289;28;20107;-82
2020/12/03 04:39:06;;;;;;;36.45;19.05;;;-1.00;99.90;;;;;;5056187;28;20124;-82
2020/12/03 04:41:33;;;;;;;36.20;19.55;;;-1.00;99.90;;;;;;5056084;28;20048;-82
2020/12/03 04:44:05;;;;;;;39.65;19.08;;;-1.00;99.90;;;;;;5054618;28;20072;-81
2020/12/03 04:46:31;;;;;;;37.13;19.87;;;-1.00;99.90;;;;;;5055372;28;20048;-82
2020/12/03 04:49:24;;;;;;;31.73;18.92;;;-1.00;99.90;;;;;;5055831;28;20483;-82
2020/12/03 04:52:25;;;;;;;33.25;19.17;;;-1.00;99.90;;;;;;5055710;28;20041;-82
2020/12/03 04:55:18;;;;;;;35.03;19.10;;;-1.00;99.90;;;;;;5054908;28;20136;-81
2020/12/03 04:57:56;;;;;;;36.00;19.92;;;-1.00;99.90;;;;;;5054795;28;20095;-81
2020/12/03 05:00:38;;;;;;;35.13;19.60;;;-1.00;99.90;;;;;;5053566;28;20132;-82
2020/12/03 05:03:07;;;;;;;40.35;20.90;;;-1.00;99.90;;;;;;5053391;28;20497;-82
2020/12/03 05:05:44;;;;;;;44.45;21.38;;;-1.00;99.90;;;;;;5053140;28;20187;-82
2020/12/03 05:08:24;;;;;;;42.28;21.20;;;-1.00;99.90;;;;;;5054117;28;20077;-82
2020/12/03 05:10:51;;;;;;;35.85;19.88;;;-1.00;99.90;;;;;;5053576;28;20133;-82
2020/12/03 05:13:25;;;;;;;34.58;20.15;;;-1.00;99.90;;;;;;5052812;28;20049;-82
2020/12/03 05:16:14;;;;;;;35.53;19.52;;;-1.00;99.90;;;;;;5053986;28;20055;-82
2020/12/03 05:19:02;;;;;;;35.55;20.15;;;-1.00;99.90;;;;;;5053577;28;20124;-82
2020/12/03 05:21:32;;;;;;;35.50;19.35;;;-0.90;99.90;;;;;;5054049;28;20127;-81
2020/12/03 05:23:59;;;;;;;36.70;20.27;;;-1.00;99.90;;;;;;5053735;28;20084;-82
2020/12/03 05:26:32;;;;;;;36.88;20.55;;;-1.00;99.90;;;;;;5073926;28;20084;-83
2020/12/03 05:29:04;;;;;;;38.28;20.48;;;-0.90;99.90;;;;;;5064412;28;20519;-83
2020/12/03 05:31:41;;;;;;;35.45;19.50;;;-1.00;99.90;;;;;;5066774;28;20056;-84
2020/12/03 05:34:14;;;;;;;33.65;18.88;;;-1.00;99.90;;;;;;5075199;28;20099;-83
2020/12/03 05:36:55;;;;;;;38.90;21.33;;;-0.90;99.90;;;;;;5076792;28;20049;-84
2020/12/03 05:39:28;;;;;;;38.55;20.30;;;-0.90;99.90;;;;;;5077217;28;20064;-83
2020/12/03 05:42:03;;;;;;;42.25;21.23;;;-1.00;99.90;;;;;;5059905;28;20074;-83
2020/12/03 05:44:43;;;;;;;36.33;19.73;;;-0.90;99.90;;;;;;5059931;28;20077;-82
2020/12/03 05:47:27;;;;;;;51.13;21.35;;;-0.90;99.90;;;;;;5060377;28;20071;-83
2020/12/03 05:49:56;;;;;;;41.30;21.17;;;-0.90;99.90;;;;;;5060329;28;20055;-83
2020/12/03 05:52:25;;;;;;;38.60;20.50;;;-0.90;99.90;;;;;;5061242;28;20084;-83
2020/12/03 05:55:09;;;;;;;46.13;20.98;;;-1.00;99.90;;;;;;5060446;28;20488;-83
2020/12/03 05:57:38;;;;;;;44.95;20.92;;;-0.90;99.90;;;;;;5059622;28;20041;-83
2020/12/03 06:00:13;;;;;;;47.75;22.27;;;-0.90;99.90;;;;;;5058232;28;20102;-83
2020/12/03 06:03:07;;;;;;;39.92;20.63;;;-0.90;99.90;;;;;;5058564;28;20141;-83
2020/12/03 06:05:51;;;;;;;42.08;21.83;;;-0.90;99.90;;;;;;5060651;28;20096;-83
2020/12/03 06:08:43;;;;;;;;;;;-0.90;99.90;;;;;;5057649;28;20076;-83
2020/12/03 06:11:33;;;;;;;45.22;20.35;;;-1.00;99.90;;;;;;5058141;28;19928;-82
2020/12/03 06:14:31;;;;;;;37.28;18.33;;;-1.00;99.90;;;;;;5059313;28;20088;-83
2020/12/03 06:17:25;;;;;;;38.20;18.48;;;-1.00;99.90;;;;;;5060161;28;20071;-83
2020/12/03 06:20:02;;;;;;;40.05;19.15;;;-1.00;99.90;;;;;;5063165;28;20460;-83
2020/12/03 06:22:50;;;;;;;37.80;18.92;;;-0.90;99.90;;;;;;5062589;28;20083;-83
2020/12/03 06:26:13;;;;;;;40.95;18.25;;;-0.90;99.90;;;;;;5063833;28;20085;-83
2020/12/03 06:29:11;;;;;;;39.90;19.33;;;-0.90;99.90;;;;;;5001079;28;20086;-82
2020/12/03 06:32:03;;;;;;;42.70;19.15;;;-0.90;99.90;;;;;;5001483;28;20182;-83
2020/12/03 06:34:45;;;;;;;36.00;17.33;;;-0.90;99.90;;;;;;5077530;28;20489;-82
2020/12/03 06:37:21;;;;;;;38.83;17.73;;;-0.90;99.90;;;;;;5059024;28;20049;-83
2020/12/03 06:40:13;;;;;;;34.85;16.98;;;-0.90;99.90;;;;;;5061516;28;20458;-82
2020/12/03 06:42:54;;;;;;;46.58;18.63;;;-0.90;99.90;;;;;;5060058;28;20060;-83
2020/12/03 06:45:41;;;;;;;35.17;17.30;;;-0.90;99.90;;;;;;5060233;28;20049;-82
2020/12/03 06:48:08;;;;;;;36.97;17.23;;;-0.80;99.90;;;;;;5063312;28;20076;-84
2020/12/03 06:51:15;;;;;;;31.20;16.58;;;-0.80;99.90;;;;;;5061321;28;20135;-83
2020/12/03 06:54:07;;;;;;;37.65;17.42;;;-0.70;99.90;;;;;;5058582;28;20057;-82
2020/12/03 06:57:22;;;;;;;32.80;15.35;;;-0.70;99.90;;;;;;5062631;28;20096;-83
2020/12/03 06:59:59;;;;;;;35.53;15.73;;;-0.80;99.90;;;;;;5061736;28;20048;-83
2020/12/03 07:03:03;;;;;;;33.92;15.15;;;-0.80;99.90;;;;;;5058928;28;20458;-83
2020/12/03 07:05:40;;;;;;;41.70;16.48;;;-0.70;99.90;;;;;;5060680;28;20049;-83
2020/12/03 07:08:45;;;;;;;31.02;14.90;;;-0.70;99.90;;;;;;5060360;28;20130;-83
2020/12/03 07:11:29;;;;;;;35.45;15.68;;;-0.70;99.90;;;;;;5056936;28;20131;-84
2020/12/03 07:14:31;;;;;;;32.00;15.75;;;-0.80;99.90;;;;;;5061486;28;20050;-83
2020/12/03 07:17:22;;;;;;;28.45;14.35;;;-0.80;99.90;;;;;;5061711;28;20124;-83
2020/12/03 07:20:09;;;;;;;40.10;15.98;;;-0.80;99.90;;;;;;5062836;28;20135;-83
2020/12/03 07:22:37;;;;;;;31.33;14.57;;;-0.60;99.90;;;;;;5060505;28;20480;-83
2020/12/03 07:25:07;;;;;;;32.30;15.55;;;-0.60;99.90;;;;;;5062050;28;20053;-83
2020/12/03 07:27:39;;;;;;;31.20;15.13;;;-0.60;99.90;;;;;;5058989;28;20096;-83
2020/12/03 07:30:20;;;;;;;28.55;15.15;;;-0.60;99.90;;;;;;5057221;28;20101;-83
2020/12/03 07:33:20;;;;;;;29.92;15.55;;;-0.60;99.90;;;;;;5060630;28;20118;-83
2020/12/03 07:36:22;;;;;;;32.05;14.93;;;-0.60;99.90;;;;;;5060159;28;20076;-83
2020/12/03 07:39:07;;;;;;;35.47;15.90;;;-0.50;99.90;;;;;;5056405;28;20132;-83
2020/12/03 07:41:56;;;;;;;30.92;16.17;;;-0.50;99.90;;;;;;5059640;28;20049;-83
2020/12/03 07:44:44;;;;;;;32.42;16.67;;;-0.40;99.90;;;;;;5059728;28;20076;-83
2020/12/03 07:47:36;;;;;;;31.42;15.70;;;-0.40;99.90;;;;;;5055511;28;20094;-82
2020/12/03 07:50:05;;;;;;;32.20;16.25;;;-0.40;99.90;;;;;;5048645;28;20045;-83
2020/12/03 07:52:36;;;;;;;46.00;22.40;;;-0.40;99.90;;;;;;5055344;28;20098;-82
2020/12/03 07:55:21;;;;;;;34.00;17.55;;;-0.40;99.90;;;;;;5057145;28;20091;-83
2020/12/03 07:57:51;;;;;;;43.40;23.73;;;-0.40;99.90;;;;;;5059197;28;20083;-83
2020/12/03 08:00:24;;;;;;;33.95;17.08;;;-0.40;99.90;;;;;;5057463;28;20063;-83
2020/12/03 08:02:59;;;;;;;31.92;17.20;;;-0.40;99.90;;;;;;5056355;28;20103;-83
2020/12/03 08:05:55;;;;;;;42.53;24.27;;;-0.30;99.90;;;;;;5056881;28;20048;-83
2020/12/03 08:08:24;;;;;;;35.47;16.95;;;-0.30;99.90;;;;;;5056623;28;20103;-83
2020/12/03 08:10:52;;;;;;;33.90;17.08;;;-0.30;99.90;;;;;;5058333;28;20095;-83
2020/12/03 08:13:27;;;;;;;32.67;16.63;;;-0.30;99.90;;;;;;5058225;28;20076;-83
2020/12/03 08:16:03;;;;;;;33.33;18.05;;;-0.30;99.90;;;;;;5059260;28;20084;-83
2020/12/03 08:18:57;;;;;;;36.13;16.80;;;-0.40;99.90;;;;;;5056376;28;20045;-83
2020/12/03 08:21:39;;;;;;;31.27;16.38;;;-0.40;99.90;;;;;;5056902;28;20509;-83
2020/12/03 08:24:15;;;;;;;31.03;16.00;;;-0.40;99.90;;;;;;5058559;28;20053;-82
2020/12/03 08:26:42;;;;;;;32.85;16.27;;;-0.40;99.90;;;;;;5055462;28;20115;-83
2020/12/03 08:29:36;;;;;;;33.75;17.92;;;-0.40;99.90;;;;;;5058503;28;20139;-83
2020/12/03 08:32:03;;;;;;;36.13;17.30;;;-0.40;99.90;;;;;;5038199;28;20533;-82
2020/12/03 08:34:33;;;;;;;30.70;15.80;;;-0.30;99.90;;;;;;5045171;28;20083;-83
2020/12/03 08:37:00;;;;;;;33.67;17.25;;;-0.40;99.90;;;;;;5038211;28;20084;-83
2020/12/03 08:39:27;;;;;;;31.73;16.98;;;-0.30;99.90;;;;;;5036275;28;20526;-82
2020/12/03 08:41:55;;;;;;;34.95;16.83;;;-0.30;99.90;;;;;;5037687;28;20045;-83
2020/12/03 08:44:21;;;;;;;36.70;16.30;;;-0.30;99.90;;;;;;5037354;28;20080;-83
2020/12/03 08:46:50;;;;;;;33.67;16.05;;;-0.30;99.90;;;;;;5035720;28;20136;-83
2020/12/03 08:49:23;;;;;;;33.70;16.25;;;-0.20;99.90;;;;;;5036897;28;20048;-83
2020/12/03 08:51:54;;;;;;;30.45;16.10;;;-0.20;99.90;;;;;;5036100;28;20057;-83
2020/12/03 08:54:31;;;;;;;32.33;17.15;;;-0.20;99.90;;;;;;5037029;28;20057;-84
2020/12/03 08:57:06;;;;;;;29.50;15.77;;;-0.20;99.90;;;;;;5038023;28;20398;-82
2020/12/03 08:59:41;;;;;;;30.45;15.57;;;-0.20;99.90;;;;;;5037088;28;20139;-83
2020/12/03 09:02:10;;;;;;;29.20;15.45;;;-0.20;99.90;;;;;;5037229;28;20083;-83
2020/12/03 09:04:44;;;;;;;30.88;15.25;;;-0.20;99.90;;;;;;5045978;28;20095;-83
2020/12/03 09:07:14;;;;;;;22.60;12.73;;;-0.10;99.90;;;;;;5053240;28;20053;-82
2020/12/03 09:09:44;;;;;;;24.63;12.82;;;-0.10;99.90;;;;;;5054391;28;20505;-83
2020/12/03 09:12:15;;;;;;;23.75;12.38;;;-0.10;99.90;;;;;;5057663;28;20084;-83
2020/12/03 09:14:42;;;;;;;23.08;12.18;;;0.00;99.90;;;;;;5058054;28;20109;-84
2020/12/03 09:17:10;;;;;;;23.25;12.52;;;0.00;99.90;;;;;;5058675;28;20122;-83
2020/12/03 09:19:38;;;;;;;21.98;11.63;;;0.00;99.90;;;;;;5060491;28;20561;-83
2020/12/03 09:22:07;;;;;;;20.85;11.00;;;0.00;99.90;;;;;;5060175;28;20076;-83
2020/12/03 09:24:35;;;;;;;25.00;12.15;;;0.00;99.90;;;;;;5056914;28;20071;-83
2020/12/03 09:27:03;;;;;;;22.48;11.35;;;0.00;99.90;;;;;;5089251;28;20088;-83
2020/12/03 09:29:30;;;;;;;21.40;11.50;;;0.10;99.90;;;;;;5089603;28;20049;-83
2020/12/03 09:32:13;;;;;;;19.40;11.52;;;0.10;99.90;;;;;;5085997;28;20048;-83
2020/12/03 09:34:41;;;;;;;25.00;12.77;;;0.10;99.90;;;;;;5088831;28;20060;-83
2020/12/03 09:37:07;;;;;;;24.05;12.15;;;0.10;99.90;;;;;;5056221;28;20056;-83
2020/12/03 09:39:35;;;;;;;22.42;12.00;;;0.10;99.90;;;;;;5056351;28;20044;-83
2020/12/03 09:42:04;;;;;;;21.52;12.05;;;0.10;99.90;;;;;;5056215;28;20080;-83
2020/12/03 09:44:36;;;;;;;23.25;12.27;;;0.10;99.90;;;;;;5053866;28;20053;-83
2020/12/03 09:47:13;;;;;;;20.58;11.43;;;0.20;99.90;;;;;;5087446;28;20087;-83
2020/12/03 09:49:42;;;;;;;23.63;11.70;;;0.30;99.90;;;;;;5053373;28;20131;-83
2020/12/03 09:52:10;;;;;;;20.63;11.32;;;0.40;99.90;;;;;;5085923;28;20095;-83
2020/12/03 09:54:41;;;;;;;22.85;11.48;;;0.40;99.90;;;;;;5054429;28;20041;-83
2020/12/03 09:57:12;;;;;;;22.58;11.82;;;0.30;99.90;;;;;;5055078;28;20103;-83
2020/12/03 09:59:39;;;;;;;18.60;10.70;;;0.40;99.90;;;;;;5055294;28;20163;-83
2020/12/03 10:02:15;;;;;;;23.83;11.98;;;0.30;99.90;;;;;;5084403;28;20048;-82
2020/12/03 10:04:53;;;;;;;20.60;11.70;;;0.30;99.90;;;;;;5086213;28;20047;-83
2020/12/03 10:07:39;;;;;;;22.40;11.40;;;0.30;99.90;;;;;;5086902;28;20049;-83
2020/12/03 10:10:40;;;;;;;21.40;11.35;;;0.40;99.90;;;;;;5054713;28;20084;-82
2020/12/03 10:13:06;;;;;;;22.58;10.73;;;0.40;99.90;;;;;;5054541;28;20041;-83
2020/12/03 10:16:04;;;;;;;20.50;11.40;;;0.40;99.90;;;;;;5054887;28;20052;-83
2020/12/03 10:18:49;;;;;;;19.60;11.35;;;0.50;99.90;;;;;;5054981;28;20084;-83
2020/12/03 10:21:21;;;;;;;22.42;11.80;;;0.60;99.90;;;;;;5054640;28;20048;-82
2020/12/03 10:23:57;;;;;;;22.00;12.10;;;0.60;99.90;;;;;;5086504;28;20048;-83
2020/12/03 10:26:49;;;;;;;25.27;12.73;;;0.50;99.90;;;;;;5054497;28;20115;-83
2020/12/03 10:29:41;;;;;;;18.88;11.27;;;0.50;99.90;;;;;;5086143;28;20055;-83
2020/12/03 10:32:16;;;;;;;24.55;12.20;;;0.50;99.90;;;;;;5053706;28;20055;-83
2020/12/03 10:34:47;;;;;;;22.35;11.80;;;0.50;99.90;;;;;;5054175;28;20059;-83
2020/12/03 10:37:26;;;;;;;21.67;11.35;;;0.50;99.90;;;;;;5054276;28;20045;-83
2020/12/03 10:40:00;;;;;;;22.58;11.73;;;0.40;99.90;;;;;;5086920;28;20049;-83
2020/12/03 10:42:33;;;;;;;23.83;12.07;;;0.30;99.90;;;;;;5054463;28;20133;-82
2020/12/03 10:45:07;;;;;;;21.65;11.40;;;0.30;99.90;;;;;;5054344;28;20056;-82
2020/12/03 10:47:43;;;;;;;28.67;12.85;;;0.20;99.90;;;;;;5086006;28;20088;-82
2020/12/03 10:50:14;;;;;;;24.73;12.48;;;0.30;99.90;;;;;;5052697;28;20135;-83
2020/12/03 10:52:42;;;;;;;22.13;12.52;;;0.20;99.90;;;;;;5086283;28;20052;-82
2020/12/03 10:55:09;;;;;;;22.92;13.15;;;0.40;99.90;;;;;;5085540;28;20092;-83
2020/12/03 10:57:41;;;;;;;23.75;12.35;;;0.40;99.90;;;;;;5053771;28;20080;-83
2020/12/03 11:00:09;;;;;;;24.77;12.93;;;0.40;99.90;;;;;;5051845;28;20059;-83
2020/12/03 11:02:40;;;;;;;22.48;12.98;;;0.50;99.90;;;;;;5054860;28;20121;-84
2020/12/03 11:05:08;;;;;;;25.05;13.07;;;0.50;99.90;;;;;;5094340;28;20045;-83
2020/12/03 11:07:36;;;;;;;24.38;13.55;;;0.50;99.90;;;;;;5093960;28;20083;-84
2020/12/03 11:10:03;;;;;;;23.23;12.98;;;0.50;99.90;;;;;;5061498;28;20091;-83
2020/12/03 11:12:30;;;;;;;25.52;13.65;;;0.50;99.90;;;;;;5061043;28;20108;-83
2020/12/03 11:15:04;;;;;;;24.73;13.10;;;0.50;99.90;;;;;;5059074;28;20041;-83
2020/12/03 11:17:31;;;;;;;24.52;12.95;;;0.60;99.90;;;;;;5092670;28;20529;-84
2020/12/03 11:20:20;;;;;;;24.48;13.15;;;0.60;99.90;;;;;;5059919;28;20056;-83
2020/12/03 11:23:02;;;;;;;23.83;13.50;;;0.50;99.90;;;;;;5057125;28;20049;-82
2020/12/03 11:25:29;;;;;;;29.13;13.68;;;0.60;99.90;;;;;;5090067;28;20095;-83
2020/12/03 11:27:59;;;;;;;21.85;12.05;;;0.70;99.90;;;;;;5058008;28;20076;-83
2020/12/03 11:30:28;;;;;;;24.00;13.60;;;0.70;99.90;;;;;;5058233;28;20055;-83
2020/12/03 11:32:56;;;;;;;26.92;13.40;;;0.80;99.90;;;;;;5088224;28;20056;-82
2020/12/03 11:35:31;;;;;;;25.92;13.43;;;1.00;99.90;;;;;;5056717;28;20105;-83
2020/12/03 11:38:03;;;;;;;22.95;13.05;;;1.10;99.90;;;;;;5056586;28;20136;-82
2020/12/03 11:40:39;;;;;;;26.92;13.52;;;1.00;99.90;;;;;;5055411;28;20150;-82
2020/12/03 11:48:42;;;;;;;22.47;12.43;;;0.90;99.90;;;;;;5056232;28;20132;-82
2020/12/03 11:51:25;;;;;;;24.15;13.20;;;0.90;99.90;;;;;;5055535;28;20118;-82
2020/12/03 11:53:56;;;;;;;22.38;13.32;;;1.10;99.90;;;;;;5054658;28;20132;-82
2020/12/03 11:56:22;;;;;;;29.42;13.95;;;1.20;99.90;;;;;;5055964;28;20052;-82
2020/12/03 11:58:48;;;;;;;25.00;12.93;;;1.20;99.90;;;;;;5055781;28;20067;-82
2020/12/03 12:01:16;;;;;;;24.85;13.20;;;1.10;99.90;;;;;;5055692;28;20048;-82
2020/12/03 12:03:47;;;;;;;23.35;12.75;;;1.10;99.90;;;;;;5088280;28;20056;-82
2020/12/03 12:06:28;;;;;;;25.55;14.40;;;1.10;99.90;;;;;;5087455;28;20084;-82
2020/12/03 12:09:07;;;;;;;27.02;13.77;;;1.10;99.90;;;;;;5087811;28;20464;-82
2020/12/03 12:11:39;;;;;;;23.88;12.82;;;1.10;99.90;;;;;;5054117;28;20076;-82
2020/12/03 12:14:05;;;;;;;24.45;12.93;;;1.00;99.90;;;;;;5054801;28;20041;-82
2020/12/03 12:16:31;;;;;;;24.70;13.55;;;1.10;99.90;;;;;;5054984;28;20146;-82
2020/12/03 12:18:58;;;;;;;23.75;13.52;;;1.10;99.90;;;;;;5057224;28;20049;-82
2020/12/03 12:21:24;;;;;;;26.38;13.63;;;1.20;99.90;;;;;;5055480;28;20102;-82
2020/12/03 12:23:50;;;;;;;25.02;14.07;;;1.20;99.90;;;;;;5055139;28;20077;-82
2020/12/03 12:26:16;;;;;;;23.75;13.32;;;1.20;99.90;;;;;;5056078;28;20080;-82
2020/12/03 12:28:43;;;;;;;23.60;13.57;;;1.10;99.90;;;;;;5088394;28;20140;-82
2020/12/03 12:31:09;;;;;;;27.00;14.48;;;1.00;99.90;;;;;;5088311;28;20084;-83
2020/12/03 12:33:35;;;;;;;25.40;14.20;;;1.00;99.90;;;;;;5054319;28;20417;-83
2020/12/03 12:36:01;;;;;;;27.02;14.65;;;1.10;99.90;;;;;;5088066;28;20075;-82
2020/12/03 12:38:28;;;;;;;24.45;13.98;;;1.10;99.90;;;;;;5055941;28;20049;-82
2020/12/03 12:40:54;;;;;;;26.50;14.30;;;1.00;99.90;;;;;;5056824;28;20051;-83
2020/12/03 12:43:20;;;;;;;27.15;14.98;;;1.10;99.90;;;;;;5087921;28;20057;-82
2020/12/03 12:45:47;;;;;;;25.95;14.95;;;1.10;99.90;;;;;;5055683;28;20053;-83
2020/12/03 12:48:14;;;;;;;26.98;14.15;;;1.10;99.90;;;;;;5054375;28;20053;-82
2020/12/03 12:50:40;;;;;;;28.70;15.55;;;1.00;99.90;;;;;;5055108;28;20135;-82
2020/12/03 12:53:06;;;;;;;24.83;14.55;;;1.00;99.90;;;;;;5087388;28;20099;-83
2020/12/03 12:55:33;;;;;;;31.80;15.73;;;1.00;99.90;;;;;;5063399;28;20266;-84
2020/12/03 12:57:59;;;;;;;29.85;15.60;;;1.00;99.90;;;;;;5096689;28;20080;-83
2020/12/03 13:00:26;;;;;;;28.00;14.63;;;1.00;99.90;;;;;;5063714;28;20059;-83
2020/12/03 13:02:52;;;;;;;26.55;14.82;;;1.00;99.90;;;;;;5088975;28;20072;-82
2020/12/03 13:05:18;;;;;;;27.85;14.95;;;1.00;99.90;;;;;;5085771;28;20049;-82